createdAt,value
2022-12-06T00:01:15.658Z,10.26
2022-12-06T00:03:47.451Z,11.64
2022-12-06T00:06:18.195Z,12.31
2022-12-06T00:08:47.194Z,11.74
2022-12-06T00:11:23.576Z,11.05
2022-12-06T00:13:56.940Z,10.52
2022-12-06T00:16:25.490Z,10.15
2022-12-06T00:18:53.782Z,9.87
2022-12-06T00:21:24.572Z,9.63
2022-12-06T00:23:54.726Z,9.43
2022-12-06T00:26:23.840Z,9.25
2022-12-06T00:28:53.603Z,9.35
2022-12-06T00:31:23.235Z,10.54
2022-12-06T00:33:51.150Z,11.64
2022-12-06T00:36:21.609Z,12.23
2022-12-06T00:38:50.266Z,11.73
2022-12-06T00:41:20.499Z,11.05
2022-12-06T00:43:48.909Z,10.52
2022-12-06T00:46:19.756Z,10.16
2022-12-06T00:48:48.531Z,9.88
2022-12-06T00:51:20.029Z,9.65
2022-12-06T00:53:48.207Z,9.45
2022-12-06T00:56:16.691Z,9.49
2022-12-06T00:58:44.792Z,10.48
2022-12-06T01:01:18.126Z,11.53
2022-12-06T01:03:46.606Z,12.11
2022-12-06T01:06:15.957Z,12.04
2022-12-06T01:08:43.873Z,11.38
2022-12-06T01:11:15.763Z,10.70
2022-12-06T01:13:43.844Z,10.16
2022-12-06T01:16:21.163Z,9.79
2022-12-06T01:18:55.432Z,9.48
2022-12-06T01:21:24.218Z,9.51
2022-12-06T01:23:54.373Z,10.59
2022-12-06T01:26:25.339Z,11.61
2022-12-06T01:28:53.745Z,12.42
2022-12-06T01:31:21.578Z,12.74
2022-12-06T01:33:49.398Z,12.07
2022-12-06T01:36:23.145Z,11.36
2022-12-06T01:38:56.013Z,10.80
2022-12-06T01:41:25.630Z,10.39
2022-12-06T01:43:54.481Z,10.08
2022-12-06T01:46:25.451Z,9.83
2022-12-06T01:49:04.613Z,9.61
2022-12-06T01:51:32.670Z,9.69
2022-12-06T01:54:02.052Z,10.79
2022-12-06T01:56:30.035Z,11.92
2022-12-06T01:58:58.847Z,12.47
2022-12-06T02:01:28.163Z,11.93
2022-12-06T02:03:57.022Z,11.24
2022-12-06T02:06:24.776Z,10.73
2022-12-06T02:08:53.440Z,10.35
2022-12-06T02:11:21.191Z,10.06
2022-12-06T02:13:49.112Z,9.81
2022-12-06T02:16:38.776Z,9.78
2022-12-06T02:19:18.847Z,10.74
2022-12-06T02:22:07.652Z,11.64
2022-12-06T02:24:59.293Z,11.97
2022-12-06T02:27:44.407Z,11.32
2022-12-06T02:30:18.725Z,10.71
2022-12-06T02:32:55.229Z,10.30
2022-12-06T02:35:49.752Z,9.98
2022-12-06T02:38:40.766Z,9.71
2022-12-06T02:41:10.766Z,9.47
2022-12-06T02:43:42.742Z,9.51
2022-12-06T02:46:12.387Z,10.52
2022-12-06T02:48:41.993Z,11.48
2022-12-06T02:51:13.696Z,12.23
2022-12-06T02:53:45.299Z,12.49
2022-12-06T02:56:13.836Z,11.86
2022-12-06T02:58:41.526Z,11.20
2022-12-06T03:01:23.948Z,10.71
2022-12-06T03:04:06.344Z,10.28
2022-12-06T03:07:12.076Z,9.94
2022-12-06T03:10:04.462Z,9.64
2022-12-06T03:12:47.753Z,9.81
2022-12-06T03:15:34.227Z,10.98
2022-12-06T03:18:08.099Z,11.81
2022-12-06T03:20:48.193Z,12.23
2022-12-06T03:23:21.595Z,11.67
2022-12-06T03:25:50.181Z,11.02
2022-12-06T03:28:18.873Z,10.53
2022-12-06T03:30:50.607Z,10.17
2022-12-06T03:37:39.907Z,9.52
2022-12-06T03:40:18.133Z,9.61
2022-12-06T03:42:47.304Z,10.79
2022-12-06T03:45:15.367Z,11.85
2022-12-06T03:48:00.707Z,12.62
2022-12-06T03:50:32.789Z,12.77
2022-12-06T03:53:01.355Z,12.03
2022-12-06T03:55:29.123Z,11.36
2022-12-06T03:57:56.835Z,10.88
2022-12-06T04:00:24.573Z,10.51
2022-12-06T04:02:52.308Z,10.21
2022-12-06T04:05:20.097Z,9.96
2022-12-06T04:07:48.415Z,9.74
2022-12-06T04:10:16.341Z,9.73
2022-12-06T04:13:02.347Z,10.73
2022-12-06T04:15:33.399Z,11.98
2022-12-06T04:18:10.709Z,12.51
2022-12-06T04:21:03.682Z,11.91
2022-12-06T04:23:34.230Z,11.08
2022-12-06T04:26:02.755Z,10.59
2022-12-06T04:28:49.235Z,10.23
2022-12-06T04:31:36.191Z,9.89
2022-12-06T04:34:22.650Z,9.61
2022-12-06T04:37:09.172Z,9.38
2022-12-06T04:39:37.227Z,9.53
2022-12-06T04:42:24.056Z,10.52
2022-12-06T04:44:51.892Z,11.75
2022-12-06T04:47:19.654Z,12.40
2022-12-06T04:49:47.397Z,11.91
2022-12-06T04:52:15.267Z,11.22
2022-12-06T04:54:43.049Z,10.66
2022-12-06T04:57:12.709Z,10.23
2022-12-06T04:59:45.470Z,9.91
2022-12-06T05:02:15.231Z,9.65
2022-12-06T05:04:43.442Z,9.71
2022-12-06T05:07:11.786Z,10.97
2022-12-06T05:09:39.986Z,12.17
2022-12-06T05:12:08.512Z,12.62
2022-12-06T05:14:36.472Z,12.01
2022-12-06T05:17:05.917Z,11.28
2022-12-06T05:19:34.180Z,10.72
2022-12-06T05:22:02.276Z,10.28
2022-12-06T05:24:30.240Z,9.91
2022-12-06T05:26:58.031Z,9.61
2022-12-06T05:29:25.802Z,9.59
2022-12-06T05:31:53.542Z,10.75
2022-12-06T05:34:21.341Z,11.90
2022-12-06T05:36:49.116Z,12.38
2022-12-06T05:39:16.912Z,11.71
2022-12-06T05:41:44.744Z,10.92
2022-12-06T05:44:12.475Z,10.31
2022-12-06T05:46:40.163Z,9.84
2022-12-06T05:49:07.918Z,9.46
2022-12-06T05:51:36.032Z,9.34
2022-12-06T05:54:06.483Z,10.30
2022-12-06T05:56:34.294Z,11.48
2022-12-06T05:59:03.425Z,11.83
2022-12-06T06:01:32.065Z,11.26
2022-12-06T06:03:59.940Z,10.57
2022-12-06T06:06:28.436Z,10.06
2022-12-06T06:08:56.169Z,9.66
2022-12-06T06:11:23.967Z,9.30
2022-12-06T06:13:51.768Z,9.53
2022-12-06T06:16:19.490Z,10.37
2022-12-06T06:18:47.502Z,11.12
2022-12-06T06:21:15.265Z,11.69
2022-12-06T06:23:43.007Z,11.67
2022-12-06T06:26:12.027Z,10.92
2022-12-06T06:28:39.731Z,10.23
2022-12-06T06:31:07.788Z,9.67
2022-12-06T06:33:36.252Z,9.23
2022-12-06T06:36:04.467Z,8.94
2022-12-06T06:38:32.188Z,9.53
2022-12-06T06:41:04.663Z,10.50
2022-12-06T06:43:32.998Z,11.27
2022-12-06T06:46:03.000Z,11.59
2022-12-06T06:48:33.885Z,10.85
2022-12-06T06:51:09.232Z,10.04
2022-12-06T06:53:37.975Z,9.42
2022-12-06T06:56:06.663Z,8.99
2022-12-06T06:58:34.452Z,8.92
2022-12-06T07:01:05.480Z,9.61
2022-12-06T07:03:33.922Z,10.38
2022-12-06T07:06:04.635Z,11.02
2022-12-06T07:08:32.639Z,11.20
2022-12-06T07:11:00.651Z,10.44
2022-12-06T07:13:29.111Z,9.56
2022-12-06T07:15:58.905Z,8.93
2022-12-06T07:18:27.509Z,8.45
2022-12-06T07:21:07.340Z,8.20
2022-12-06T07:23:35.999Z,8.90
2022-12-06T07:26:06.291Z,9.36
2022-12-06T07:28:38.703Z,9.94
2022-12-06T07:31:09.722Z,10.47
2022-12-06T07:33:38.301Z,10.00
2022-12-06T07:36:14.467Z,9.19
2022-12-06T07:38:43.733Z,8.52
2022-12-06T07:41:31.711Z,8.06
2022-12-06T07:44:19.514Z,7.69
2022-12-06T07:46:47.740Z,7.48
2022-12-06T07:49:17.011Z,7.97
2022-12-06T07:51:45.535Z,8.80
2022-12-06T07:54:14.305Z,9.48
2022-12-06T07:56:42.728Z,10.42
2022-12-06T07:59:10.701Z,11.04
2022-12-06T08:01:38.657Z,10.70
2022-12-06T08:04:06.836Z,9.93
2022-12-06T08:06:34.945Z,9.34
2022-12-06T08:09:02.758Z,8.93
2022-12-06T08:11:30.597Z,8.61
2022-12-06T08:13:58.406Z,8.38
2022-12-06T08:16:26.124Z,8.19
2022-12-06T08:18:55.351Z,8.00
2022-12-06T08:21:23.300Z,8.08
2022-12-06T08:23:52.394Z,9.24
2022-12-06T08:26:20.200Z,10.40
2022-12-06T08:28:48.036Z,10.86
2022-12-06T08:31:18.468Z,10.11
2022-12-06T08:33:47.166Z,9.33
2022-12-06T08:36:18.630Z,8.73
2022-12-06T08:38:47.152Z,8.26
2022-12-06T08:41:33.764Z,7.91
2022-12-06T08:44:02.900Z,7.98
2022-12-06T08:46:31.801Z,9.09
2022-12-06T08:49:00.120Z,10.12
2022-12-06T08:51:28.994Z,10.80
2022-12-06T08:53:57.408Z,10.38
2022-12-06T08:56:25.848Z,9.58
2022-12-06T08:58:54.224Z,8.96
2022-12-06T09:01:25.293Z,8.46
2022-12-06T09:03:53.649Z,8.10
2022-12-06T09:06:22.265Z,7.82
2022-12-06T09:08:50.396Z,7.91
2022-12-06T09:11:18.535Z,9.14
2022-12-06T09:13:46.381Z,10.26
2022-12-06T09:16:16.939Z,11.07
2022-12-06T09:18:45.134Z,11.33
2022-12-06T09:21:18.739Z,10.60
2022-12-06T09:23:46.572Z,9.83
2022-12-06T09:26:14.589Z,9.25
2022-12-06T09:28:43.449Z,8.77
2022-12-06T09:31:11.398Z,8.34
2022-12-06T09:33:39.311Z,8.23
2022-12-06T09:36:17.181Z,9.09
2022-12-06T09:38:45.875Z,9.93
2022-12-06T09:41:23.142Z,10.32
2022-12-06T09:43:54.937Z,9.77
2022-12-06T09:46:38.180Z,9.10
2022-12-06T09:49:35.798Z,8.60
2022-12-06T09:52:27.160Z,8.29
2022-12-06T09:55:39.788Z,9.07
2022-12-06T09:58:27.411Z,10.69
2022-12-06T10:01:19.749Z,11.60
2022-12-06T10:04:11.096Z,11.48
2022-12-06T10:06:44.835Z,10.59
2022-12-06T10:09:18.864Z,9.96
2022-12-06T10:12:01.248Z,9.42
2022-12-06T10:14:39.264Z,8.98
2022-12-06T10:17:29.067Z,8.55
2022-12-06T10:20:24.436Z,8.16
2022-12-06T10:23:01.352Z,7.81
2022-12-06T10:25:40.360Z,7.57
2022-12-06T10:28:16.170Z,7.70
2022-12-06T10:31:23.381Z,8.92
2022-12-06T10:34:11.344Z,10.06
2022-12-06T10:36:44.937Z,10.17
2022-12-06T10:39:28.085Z,9.44
2022-12-06T10:42:02.827Z,8.73
2022-12-06T10:44:36.806Z,8.28
2022-12-06T10:47:13.054Z,7.98
2022-12-06T10:49:48.842Z,7.74
2022-12-06T10:52:23.250Z,7.79
2022-12-06T10:54:57.099Z,9.26
2022-12-06T10:57:37.433Z,10.55
2022-12-06T11:00:22.939Z,10.80
2022-12-06T11:03:05.659Z,10.05
2022-12-06T11:05:37.614Z,9.28
2022-12-06T11:08:25.214Z,8.67
2022-12-06T11:10:54.891Z,8.22
2022-12-06T11:13:38.904Z,7.93
2022-12-06T11:16:09.959Z,7.67
2022-12-06T11:18:38.316Z,8.14
2022-12-06T11:21:25.008Z,9.11
2022-12-06T11:24:03.447Z,9.79
2022-12-06T11:26:45.428Z,10.31
2022-12-06T11:29:15.333Z,10.62
2022-12-06T11:31:49.660Z,9.93
2022-12-06T11:34:20.910Z,9.18
2022-12-06T11:36:54.006Z,8.62
2022-12-06T11:39:24.623Z,8.19
2022-12-06T11:41:57.696Z,7.87
2022-12-06T11:44:27.348Z,7.78
2022-12-06T11:47:00.496Z,8.51
2022-12-06T11:49:35.071Z,9.40
2022-12-06T11:52:09.017Z,10.18
2022-12-06T11:54:58.260Z,10.54
2022-12-06T11:57:32.210Z,9.81
2022-12-06T12:00:15.524Z,9.12
2022-12-06T12:02:46.557Z,8.61
2022-12-06T12:05:24.006Z,8.27
2022-12-06T12:07:58.141Z,8.00
2022-12-06T12:10:31.910Z,8.04
2022-12-06T12:13:44.455Z,9.26
2022-12-06T12:16:24.621Z,10.84
2022-12-06T12:19:05.281Z,11.35
2022-12-06T12:21:39.214Z,10.54
2022-12-06T12:25:03.228Z,9.69
2022-12-06T12:27:35.031Z,8.92
2022-12-06T12:30:15.317Z,8.48
2022-12-06T12:32:44.539Z,8.11
2022-12-06T12:35:21.960Z,7.83
2022-12-06T12:37:55.991Z,7.98
2022-12-06T12:40:34.369Z,9.50
2022-12-06T12:43:07.993Z,10.90
2022-12-06T12:45:35.885Z,11.05
2022-12-06T12:48:24.907Z,10.20
2022-12-06T12:51:04.413Z,9.42
2022-12-06T12:53:41.164Z,8.92
2022-12-06T12:56:17.641Z,8.55
2022-12-06T12:58:48.057Z,8.23
2022-12-06T13:01:25.157Z,7.97
2022-12-06T13:04:25.755Z,7.91
2022-12-06T13:07:03.761Z,9.44
2022-12-06T13:09:57.702Z,10.75
2022-12-06T13:12:30.580Z,11.01
2022-12-06T13:15:26.016Z,10.10
2022-12-06T13:18:18.622Z,9.21
2022-12-06T13:20:46.291Z,8.62
2022-12-06T13:23:16.629Z,8.27
2022-12-06T13:25:52.840Z,8.03
2022-12-06T13:28:23.577Z,7.82
2022-12-06T13:30:57.687Z,8.17
2022-12-06T13:33:27.202Z,9.55
2022-12-06T13:36:01.108Z,10.62
2022-12-06T13:38:35.968Z,10.73
2022-12-06T13:41:05.711Z,9.88
2022-12-06T13:43:39.302Z,9.14
2022-12-06T13:46:10.947Z,8.62
2022-12-06T13:48:49.173Z,8.24
2022-12-06T13:51:35.329Z,7.88
2022-12-06T13:54:06.204Z,7.60
2022-12-06T13:56:33.906Z,7.67
2022-12-06T13:59:04.600Z,9.06
2022-12-06T14:01:36.842Z,10.38
2022-12-06T14:09:49.314Z,9.41
2022-12-06T14:12:19.461Z,8.84
2022-12-06T14:14:56.977Z,8.45
2022-12-06T14:18:00.756Z,8.13
2022-12-06T14:20:27.663Z,7.82
2022-12-06T14:22:56.528Z,7.80
2022-12-06T14:25:28.547Z,8.80
2022-12-06T14:28:06.596Z,10.04
2022-12-06T14:30:35.286Z,10.96
2022-12-06T14:33:21.708Z,10.92
2022-12-06T14:35:54.378Z,10.06
2022-12-06T14:38:22.796Z,9.40
2022-12-06T14:41:10.821Z,8.90
2022-12-06T14:43:39.325Z,8.46
2022-12-06T14:46:12.298Z,8.12
2022-12-06T14:48:59.969Z,7.82
2022-12-06T14:51:36.378Z,8.45
2022-12-06T14:54:29.213Z,9.75
2022-12-06T14:56:56.973Z,10.72
2022-12-06T15:00:03.026Z,11.22
2022-12-06T15:02:25.191Z,10.47
2022-12-06T15:04:53.457Z,9.68
2022-12-06T15:07:42.041Z,9.09
2022-12-06T15:10:25.666Z,8.54
2022-12-06T15:12:56.842Z,8.17
2022-12-06T15:15:45.096Z,8.88
2022-12-06T15:18:26.204Z,10.34
2022-12-06T15:20:54.358Z,10.96
2022-12-06T15:23:30.181Z,10.22
2022-12-06T15:25:57.929Z,9.24
2022-12-06T15:28:25.653Z,8.53
2022-12-06T15:30:53.963Z,8.03
2022-12-06T15:33:23.684Z,8.33
2022-12-06T15:35:52.154Z,9.37
2022-12-06T15:38:20.165Z,10.26
2022-12-06T15:40:49.639Z,10.28
2022-12-06T15:43:33.323Z,9.59
2022-12-06T15:46:03.525Z,8.91
2022-12-06T15:48:35.017Z,8.41
2022-12-06T15:51:07.909Z,8.05
2022-12-06T15:53:38.239Z,8.06
2022-12-06T15:56:06.209Z,9.11
2022-12-06T15:58:33.933Z,10.07
2022-12-06T16:01:01.641Z,10.57
2022-12-06T16:03:29.473Z,9.98
2022-12-06T16:05:57.320Z,9.21
2022-12-06T16:08:25.158Z,8.59
2022-12-06T16:13:41.231Z,8.27
2022-12-06T16:16:09.953Z,9.18
2022-12-06T16:18:38.154Z,9.85
2022-12-06T16:21:06.226Z,9.64
2022-12-06T16:26:43.782Z,8.08
2022-12-06T16:29:25.791Z,7.87
2022-12-06T16:31:54.465Z,8.99
2022-12-06T16:34:22.510Z,10.22
2022-12-06T16:36:57.397Z,10.68
2022-12-06T16:39:25.867Z,9.91
2022-12-06T16:41:53.694Z,9.10
2022-12-06T16:44:22.205Z,8.43
2022-12-06T16:46:50.094Z,7.96
2022-12-06T16:49:45.255Z,7.90
2022-12-06T16:52:10.575Z,9.45
2022-12-06T16:54:41.384Z,10.73
2022-12-06T16:57:13.701Z,11.21
2022-12-06T16:59:44.896Z,10.47
2022-12-06T17:02:28.624Z,9.57
2022-12-06T17:05:01.203Z,8.84
2022-12-06T17:07:29.432Z,8.34
2022-12-06T17:09:57.307Z,8.00
2022-12-06T17:12:25.157Z,7.68
2022-12-06T17:14:52.920Z,7.49
2022-12-06T17:17:22.658Z,8.29
2022-12-06T17:19:50.592Z,9.72
2022-12-06T17:22:19.252Z,10.46
2022-12-06T17:24:47.170Z,9.90
2022-12-06T17:27:16.257Z,9.10
2022-12-06T17:29:44.513Z,8.53
2022-12-06T17:32:14.657Z,8.11
2022-12-06T17:34:42.405Z,7.82
2022-12-06T17:37:11.119Z,7.56
2022-12-06T17:39:39.371Z,7.73
2022-12-06T17:42:25.638Z,9.11
2022-12-06T17:44:53.438Z,10.40
2022-12-06T17:47:21.249Z,10.87
2022-12-06T17:49:49.037Z,10.25
2022-12-06T17:52:16.966Z,9.42
2022-12-06T17:54:44.768Z,8.74
2022-12-06T17:57:17.231Z,8.16
2022-12-06T17:59:47.144Z,7.68
2022-12-06T18:02:19.077Z,7.56
2022-12-06T18:04:48.287Z,8.61
2022-12-06T18:07:17.555Z,9.75
2022-12-06T18:09:46.194Z,10.42
2022-12-06T18:12:15.931Z,9.86
2022-12-06T18:14:44.892Z,9.07
2022-12-06T18:17:12.820Z,8.48
2022-12-06T18:19:40.963Z,8.03
2022-12-06T18:22:09.051Z,8.00
2022-12-06T18:24:36.839Z,9.15
2022-12-06T18:27:05.911Z,10.26
2022-12-06T18:29:34.326Z,10.66
2022-12-06T18:32:02.920Z,9.99
2022-12-06T18:34:31.321Z,9.16
2022-12-06T18:36:59.136Z,8.51
2022-12-06T18:39:28.016Z,8.02
2022-12-06T18:41:56.378Z,7.65
2022-12-06T18:44:24.798Z,7.35
2022-12-06T18:46:52.644Z,7.31
2022-12-06T18:49:20.586Z,8.37
2022-12-06T18:51:48.685Z,9.78
2022-12-06T18:54:16.459Z,10.64
2022-12-06T18:56:44.231Z,10.15
2022-12-06T18:59:12.339Z,9.34
2022-12-06T19:01:41.651Z,8.68
2022-12-06T19:04:14.362Z,8.18
2022-12-06T19:06:43.451Z,7.79
2022-12-06T19:09:14.580Z,7.50
2022-12-06T19:11:45.621Z,8.24
2022-12-06T19:14:14.471Z,9.49
2022-12-06T19:16:47.529Z,10.24
2022-12-06T19:19:21.623Z,10.01
2022-12-06T19:21:50.612Z,9.04
2022-12-06T19:24:22.739Z,8.29
2022-12-06T19:26:51.846Z,7.74
2022-12-06T19:29:19.934Z,7.59
2022-12-06T19:31:47.922Z,8.56
2022-12-06T19:34:18.536Z,9.36
2022-12-06T19:36:48.579Z,9.99
2022-12-06T19:39:16.489Z,10.19
2022-12-06T19:42:03.632Z,9.45
2022-12-06T19:44:31.713Z,8.43
2022-12-06T19:46:59.714Z,7.78
2022-12-06T19:49:28.713Z,8.25
2022-12-06T19:51:56.552Z,9.35
2022-12-06T19:54:27.646Z,10.08
2022-12-06T19:56:57.232Z,9.59
2022-12-06T19:59:30.570Z,8.66
2022-12-06T20:01:58.866Z,7.95
2022-12-06T20:04:31.831Z,7.44
2022-12-06T20:07:00.052Z,7.39
2022-12-06T20:09:30.002Z,8.58
2022-12-06T20:12:02.915Z,9.64
2022-12-06T20:14:45.647Z,10.13
2022-12-06T20:17:19.522Z,9.34
2022-12-06T20:19:49.329Z,8.39
2022-12-06T20:22:19.226Z,7.66
2022-12-06T20:24:48.229Z,7.58
2022-12-06T20:27:15.968Z,8.72
2022-12-06T20:29:43.773Z,9.66
2022-12-06T20:32:14.051Z,9.75
2022-12-06T20:34:41.841Z,8.87
2022-12-06T20:37:10.678Z,7.96
2022-12-06T20:39:38.760Z,7.43
2022-12-06T20:42:06.943Z,8.21
2022-12-06T20:44:35.628Z,9.25
2022-12-06T20:47:03.814Z,9.96
2022-12-06T20:49:31.806Z,10.09
2022-12-06T20:52:02.092Z,9.36
2022-12-06T20:54:30.226Z,8.50
2022-12-06T20:56:58.431Z,7.81
2022-12-06T20:59:26.801Z,7.27
2022-12-06T21:01:55.102Z,7.34
2022-12-06T21:04:22.981Z,8.72
2022-12-06T21:06:50.729Z,9.65
2022-12-06T21:09:18.478Z,9.62
2022-12-06T21:11:46.829Z,8.75
2022-12-06T21:14:15.966Z,7.87
2022-12-06T21:16:44.080Z,7.58
2022-12-06T21:19:14.536Z,8.61
2022-12-06T21:21:48.279Z,9.52
2022-12-06T21:24:19.944Z,9.82
2022-12-06T21:26:48.188Z,9.01
2022-12-06T21:29:18.307Z,8.16
2022-12-06T21:31:46.351Z,7.46
2022-12-06T21:34:14.806Z,7.22
2022-12-06T21:36:43.039Z,8.12
2022-12-06T21:39:14.792Z,9.07
2022-12-06T21:41:42.661Z,9.06
2022-12-06T21:44:10.463Z,8.25
2022-12-06T21:46:38.589Z,7.49
2022-12-06T21:49:06.477Z,7.16
2022-12-06T21:51:36.120Z,8.11
2022-12-06T21:54:04.047Z,9.21
2022-12-06T21:56:32.829Z,9.79
2022-12-06T21:59:01.509Z,9.09
2022-12-06T22:01:31.022Z,8.09
2022-12-06T22:04:01.421Z,7.35
2022-12-06T22:06:29.647Z,7.15
2022-12-06T22:09:03.841Z,8.24
2022-12-06T22:11:31.878Z,9.54
2022-12-06T22:14:00.828Z,10.13
2022-12-06T22:16:29.216Z,9.35
2022-12-06T22:18:57.892Z,8.39
2022-12-06T22:21:30.319Z,7.65
2022-12-06T22:23:58.595Z,7.41
2022-12-06T22:26:30.918Z,8.36
2022-12-06T22:29:00.019Z,9.18
2022-12-06T22:31:30.770Z,8.99
2022-12-06T22:34:00.495Z,8.19
2022-12-06T22:36:28.931Z,7.52
2022-12-06T22:38:58.896Z,7.41
2022-12-06T22:41:28.047Z,8.47
2022-12-06T22:43:58.073Z,9.46
2022-12-06T22:46:26.740Z,10.13
2022-12-06T22:48:56.094Z,10.04
2022-12-06T22:51:35.427Z,9.16
2022-12-06T22:54:09.381Z,8.33
2022-12-06T22:56:39.674Z,7.71
2022-12-06T22:59:08.858Z,7.63
2022-12-06T23:01:36.653Z,8.62
2022-12-06T23:04:06.341Z,9.50
2022-12-06T23:06:35.827Z,9.95
2022-12-06T23:09:05.356Z,9.52
2022-12-06T23:11:35.120Z,8.66
2022-12-06T23:14:04.500Z,7.91
2022-12-06T23:16:32.801Z,7.49
2022-12-06T23:19:01.935Z,8.41
2022-12-06T23:21:32.225Z,9.34
2022-12-06T23:24:03.298Z,9.51
2022-12-06T23:26:38.041Z,8.70
2022-12-06T23:29:07.330Z,7.89
2022-12-06T23:31:37.758Z,7.27
2022-12-06T23:34:10.056Z,7.43
2022-12-06T23:36:37.748Z,8.62
2022-12-06T23:39:06.256Z,9.25
2022-12-06T23:41:34.901Z,9.93
2022-12-06T23:44:03.653Z,9.96
2022-12-06T23:46:34.018Z,8.93
2022-12-06T23:49:02.240Z,8.04
2022-12-06T23:51:36.223Z,7.39
2022-12-06T23:54:06.477Z,7.20
2022-12-06T23:56:37.623Z,8.40
2022-12-06T23:59:07.526Z,9.57
